sensor_id;sensor_type;location;lat;lon;timestamp;P1;durP1;ratioP1;P2;durP2;ratioP2
323;SDS011;149;51.094;17.002;2022-09-17T00:01:17;3.90;;;2.47;;
323;SDS011;149;51.094;17.002;2022-09-17T00:03:49;3.85;;;1.95;;
323;SDS011;149;51.094;17.002;2022-09-17T00:06:18;2.97;;;2.47;;
323;SDS011;149;51.094;17.002;2022-09-17T00:08:45;4.03;;;2.30;;
323;SDS011;149;51.094;17.002;2022-09-17T00:11:14;2.53;;;2.33;;
323;SDS011;149;51.094;17.002;2022-09-17T00:13:47;3.13;;;2.83;;
323;SDS011;149;51.094;17.002;2022-09-17T00:16:20;3.97;;;2.97;;
323;SDS011;149;51.094;17.002;2022-09-17T00:18:52;4.82;;;2.65;;
323;SDS011;149;51.094;17.002;2022-09-17T00:21:20;2.45;;;1.95;;
323;SDS011;149;51.094;17.002;2022-09-17T00:23:48;4.35;;;2.30;;
323;SDS011;149;51.094;17.002;2022-09-17T00:26:18;2.70;;;1.90;;
323;SDS011;149;51.094;17.002;2022-09-17T00:28:49;2.38;;;2.10;;
323;SDS011;149;51.094;17.002;2022-09-17T00:31:17;1.70;;;1.60;;
323;SDS011;149;51.094;17.002;2022-09-17T00:33:44;3.88;;;2.38;;
323;SDS011;149;51.094;17.002;2022-09-17T00:36:11;2.70;;;1.88;;
323;SDS011;149;51.094;17.002;2022-09-17T00:38:37;2.35;;;2.13;;
323;SDS011;149;51.094;17.002;2022-09-17T00:41:05;3.78;;;2.22;;
323;SDS011;149;51.094;17.002;2022-09-17T00:46:03;3.83;;;2.33;;
323;SDS011;149;51.094;17.002;2022-09-17T00:48:37;2.55;;;2.20;;
323;SDS011;149;51.094;17.002;2022-09-17T00:51:04;1.70;;;1.58;;
323;SDS011;149;51.094;17.002;2022-09-17T00:53:33;2.33;;;1.83;;
323;SDS011;149;51.094;17.002;2022-09-17T00:56:04;2.35;;;1.85;;
323;SDS011;149;51.094;17.002;2022-09-17T00:58:37;2.58;;;2.00;;
323;SDS011;149;51.094;17.002;2022-09-17T01:01:06;1.77;;;1.65;;
323;SDS011;149;51.094;17.002;2022-09-17T01:03:34;4.15;;;2.38;;
323;SDS011;149;51.094;17.002;2022-09-17T01:06:04;6.18;;;2.22;;
323;SDS011;149;51.094;17.002;2022-09-17T01:08:53;3.00;;;1.55;;
323;SDS011;149;51.094;17.002;2022-09-17T01:17:45;3.85;;;2.05;;
323;SDS011;149;51.094;17.002;2022-09-17T01:23:25;3.15;;;1.80;;
323;SDS011;149;51.094;17.002;2022-09-17T01:31:52;5.20;;;1.85;;
323;SDS011;149;51.094;17.002;2022-09-17T01:34:26;1.92;;;1.73;;
323;SDS011;149;51.094;17.002;2022-09-17T01:37:20;2.40;;;1.73;;
323;SDS011;149;51.094;17.002;2022-09-17T01:39:58;1.88;;;1.70;;
323;SDS011;149;51.094;17.002;2022-09-17T01:42:57;2.08;;;1.90;;
323;SDS011;149;51.094;17.002;2022-09-17T01:45:40;3.85;;;1.95;;
323;SDS011;149;51.094;17.002;2022-09-17T01:48:34;2.67;;;1.85;;
323;SDS011;149;51.094;17.002;2022-09-17T01:53:35;4.18;;;1.90;;
323;SDS011;149;51.094;17.002;2022-09-17T01:56:07;2.63;;;2.20;;
323;SDS011;149;51.094;17.002;2022-09-17T01:58:37;2.83;;;2.17;;
323;SDS011;149;51.094;17.002;2022-09-17T02:01:15;2.20;;;2.05;;
323;SDS011;149;51.094;17.002;2022-09-17T02:03:48;4.28;;;2.28;;
323;SDS011;149;51.094;17.002;2022-09-17T02:06:23;2.88;;;2.17;;
323;SDS011;149;51.094;17.002;2022-09-17T02:09:17;2.45;;;1.88;;
323;SDS011;149;51.094;17.002;2022-09-17T02:11:46;3.47;;;1.92;;
323;SDS011;149;51.094;17.002;2022-09-17T02:14:21;2.95;;;2.75;;
323;SDS011;149;51.094;17.002;2022-09-17T02:17:00;4.53;;;2.47;;
323;SDS011;149;51.094;17.002;2022-09-17T02:19:33;2.85;;;2.63;;
323;SDS011;149;51.094;17.002;2022-09-17T02:27:20;4.25;;;2.10;;
323;SDS011;149;51.094;17.002;2022-09-17T02:29:54;2.95;;;2.20;;
323;SDS011;149;51.094;17.002;2022-09-17T02:32:21;3.65;;;2.88;;
323;SDS011;149;51.094;17.002;2022-09-17T02:34:50;4.88;;;2.25;;
323;SDS011;149;51.094;17.002;2022-09-17T02:37:17;2.58;;;2.38;;
323;SDS011;149;51.094;17.002;2022-09-17T02:39:44;4.20;;;2.90;;
323;SDS011;149;51.094;17.002;2022-09-17T02:42:19;3.08;;;2.30;;
323;SDS011;149;51.094;17.002;2022-09-17T02:47:45;2.42;;;2.10;;
323;SDS011;149;51.094;17.002;2022-09-17T02:51:05;2.92;;;2.47;;
323;SDS011;149;51.094;17.002;2022-09-17T02:59:36;3.15;;;2.20;;
323;SDS011;149;51.094;17.002;2022-09-17T03:02:15;2.28;;;2.08;;
323;SDS011;149;51.094;17.002;2022-09-17T03:04:49;2.30;;;2.10;;
323;SDS011;149;51.094;17.002;2022-09-17T03:07:18;6.75;;;2.85;;
323;SDS011;149;51.094;17.002;2022-09-17T03:09:45;2.50;;;2.13;;
323;SDS011;149;51.094;17.002;2022-09-17T03:12:13;2.63;;;2.20;;
323;SDS011;149;51.094;17.002;2022-09-17T03:14:40;2.08;;;1.90;;
323;SDS011;149;51.094;17.002;2022-09-17T03:17:07;1.85;;;1.75;;
323;SDS011;149;51.094;17.002;2022-09-17T03:19:36;2.17;;;1.98;;
323;SDS011;149;51.094;17.002;2022-09-17T03:22:03;3.88;;;1.90;;
323;SDS011;149;51.094;17.002;2022-09-17T03:24:30;2.03;;;1.80;;
323;SDS011;149;51.094;17.002;2022-09-17T03:26:57;2.55;;;2.20;;
323;SDS011;149;51.094;17.002;2022-09-17T03:29:24;3.92;;;2.30;;
323;SDS011;149;51.094;17.002;2022-09-17T03:31:51;2.60;;;2.13;;
323;SDS011;149;51.094;17.002;2022-09-17T03:34:18;2.33;;;2.00;;
323;SDS011;149;51.094;17.002;2022-09-17T03:36:46;2.33;;;2.13;;
323;SDS011;149;51.094;17.002;2022-09-17T03:39:12;2.17;;;1.83;;
323;SDS011;149;51.094;17.002;2022-09-17T03:41:39;1.60;;;1.50;;
323;SDS011;149;51.094;17.002;2022-09-17T03:44:06;2.35;;;1.65;;
323;SDS011;149;51.094;17.002;2022-09-17T03:46:33;2.38;;;1.90;;
323;SDS011;149;51.094;17.002;2022-09-17T03:49:00;2.60;;;2.40;;
323;SDS011;149;51.094;17.002;2022-09-17T03:51:26;1.98;;;1.88;;
323;SDS011;149;51.094;17.002;2022-09-17T03:53:54;1.92;;;1.83;;
323;SDS011;149;51.094;17.002;2022-09-17T03:56:21;2.25;;;2.03;;
323;SDS011;149;51.094;17.002;2022-09-17T03:58:48;6.60;;;3.13;;
323;SDS011;149;51.094;17.002;2022-09-17T04:01:14;2.53;;;2.30;;
323;SDS011;149;51.094;17.002;2022-09-17T04:03:41;3.33;;;2.72;;
323;SDS011;149;51.094;17.002;2022-09-17T04:06:09;5.68;;;2.28;;
323;SDS011;149;51.094;17.002;2022-09-17T04:08:36;1.95;;;1.85;;
323;SDS011;149;51.094;17.002;2022-09-17T04:11:03;3.17;;;2.30;;
323;SDS011;149;51.094;17.002;2022-09-17T04:13:30;3.90;;;2.15;;
323;SDS011;149;51.094;17.002;2022-09-17T04:15:57;2.97;;;2.67;;
323;SDS011;149;51.094;17.002;2022-09-17T04:18:24;2.85;;;2.60;;
323;SDS011;149;51.094;17.002;2022-09-17T04:20:50;2.92;;;2.72;;
323;SDS011;149;51.094;17.002;2022-09-17T04:23:17;4.45;;;2.60;;
323;SDS011;149;51.094;17.002;2022-09-17T04:25:44;2.85;;;2.60;;
323;SDS011;149;51.094;17.002;2022-09-17T04:28:11;3.90;;;2.35;;
323;SDS011;149;51.094;17.002;2022-09-17T04:30:38;2.42;;;2.22;;
323;SDS011;149;51.094;17.002;2022-09-17T04:33:08;3.83;;;3.17;;
323;SDS011;149;51.094;17.002;2022-09-17T04:35:35;4.18;;;2.72;;
323;SDS011;149;51.094;17.002;2022-09-17T04:38:02;2.70;;;2.50;;
323;SDS011;149;51.094;17.002;2022-09-17T04:40:29;4.75;;;2.95;;
323;SDS011;149;51.094;17.002;2022-09-17T04:42:57;3.50;;;2.70;;
323;SDS011;149;51.094;17.002;2022-09-17T04:45:25;2.97;;;2.75;;
323;SDS011;149;51.094;17.002;2022-09-17T04:47:52;2.90;;;2.60;;
323;SDS011;149;51.094;17.002;2022-09-17T04:50:19;4.20;;;2.45;;
323;SDS011;149;51.094;17.002;2022-09-17T04:52:47;3.42;;;3.13;;
323;SDS011;149;51.094;17.002;2022-09-17T04:55:14;3.47;;;2.80;;
323;SDS011;149;51.094;17.002;2022-09-17T04:57:45;5.35;;;3.72;;
323;SDS011;149;51.094;17.002;2022-09-17T05:00:14;6.88;;;3.03;;
323;SDS011;149;51.094;17.002;2022-09-17T05:02:46;4.78;;;2.85;;
323;SDS011;149;51.094;17.002;2022-09-17T05:05:15;3.17;;;2.97;;
323;SDS011;149;51.094;17.002;2022-09-17T05:07:43;4.15;;;3.72;;
323;SDS011;149;51.094;17.002;2022-09-17T05:10:11;4.10;;;3.17;;
323;SDS011;149;51.094;17.002;2022-09-17T05:12:38;2.67;;;2.35;;
323;SDS011;149;51.094;17.002;2022-09-17T05:15:06;6.22;;;3.13;;
323;SDS011;149;51.094;17.002;2022-09-17T05:17:33;4.03;;;2.78;;
323;SDS011;149;51.094;17.002;2022-09-17T05:20:00;4.85;;;3.80;;
323;SDS011;149;51.094;17.002;2022-09-17T05:22:27;2.63;;;2.42;;
323;SDS011;149;51.094;17.002;2022-09-17T05:24:54;3.45;;;2.70;;
323;SDS011;149;51.094;17.002;2022-09-17T05:27:21;3.72;;;2.20;;
323;SDS011;149;51.094;17.002;2022-09-17T05:29:47;2.90;;;2.70;;
323;SDS011;149;51.094;17.002;2022-09-17T05:32:14;4.65;;;2.45;;
323;SDS011;149;51.094;17.002;2022-09-17T05:34:42;2.45;;;2.25;;
323;SDS011;149;51.094;17.002;2022-09-17T05:37:09;3.72;;;2.70;;
323;SDS011;149;51.094;17.002;2022-09-17T05:39:36;3.13;;;2.15;;
323;SDS011;149;51.094;17.002;2022-09-17T05:42:03;2.30;;;2.10;;
323;SDS011;149;51.094;17.002;2022-09-17T05:44:30;2.85;;;2.50;;
323;SDS011;149;51.094;17.002;2022-09-17T05:46:57;2.30;;;2.10;;
323;SDS011;149;51.094;17.002;2022-09-17T05:49:24;2.33;;;2.13;;
323;SDS011;149;51.094;17.002;2022-09-17T05:51:51;4.78;;;2.30;;
323;SDS011;149;51.094;17.002;2022-09-17T05:54:18;2.50;;;2.10;;
323;SDS011;149;51.094;17.002;2022-09-17T05:56:45;4.05;;;2.58;;
323;SDS011;149;51.094;17.002;2022-09-17T05:59:11;3.25;;;2.30;;
323;SDS011;149;51.094;17.002;2022-09-17T06:01:40;3.72;;;2.45;;
323;SDS011;149;51.094;17.002;2022-09-17T06:04:07;8.93;;;2.53;;
323;SDS011;149;51.094;17.002;2022-09-17T06:06:35;3.25;;;2.80;;
323;SDS011;149;51.094;17.002;2022-09-17T06:09:03;1.83;;;1.73;;
323;SDS011;149;51.094;17.002;2022-09-17T06:11:31;3.03;;;2.72;;
323;SDS011;149;51.094;17.002;2022-09-17T06:13:58;6.40;;;2.13;;
323;SDS011;149;51.094;17.002;2022-09-17T06:16:26;3.70;;;2.80;;
323;SDS011;149;51.094;17.002;2022-09-17T06:18:53;7.90;;;3.75;;
323;SDS011;149;51.094;17.002;2022-09-17T06:21:20;3.15;;;2.40;;
323;SDS011;149;51.094;17.002;2022-09-17T06:23:48;2.33;;;2.13;;
323;SDS011;149;51.094;17.002;2022-09-17T06:26:17;3.38;;;2.88;;
323;SDS011;149;51.094;17.002;2022-09-17T06:28:44;2.40;;;2.20;;
323;SDS011;149;51.094;17.002;2022-09-17T06:31:12;3.08;;;2.80;;
323;SDS011;149;51.094;17.002;2022-09-17T06:33:39;10.05;;;1.88;;
323;SDS011;149;51.094;17.002;2022-09-17T06:36:08;5.00;;;2.67;;
323;SDS011;149;51.094;17.002;2022-09-17T06:38:40;5.35;;;3.00;;
323;SDS011;149;51.094;17.002;2022-09-17T06:41:08;3.33;;;2.40;;
323;SDS011;149;51.094;17.002;2022-09-17T06:43:35;4.50;;;2.10;;
323;SDS011;149;51.094;17.002;2022-09-17T06:46:03;5.78;;;2.28;;
323;SDS011;149;51.094;17.002;2022-09-17T06:48:35;3.47;;;2.22;;
323;SDS011;149;51.094;17.002;2022-09-17T06:51:04;5.13;;;2.47;;
323;SDS011;149;51.094;17.002;2022-09-17T06:53:33;8.65;;;2.30;;
323;SDS011;149;51.094;17.002;2022-09-17T06:56:03;7.18;;;2.22;;
323;SDS011;149;51.094;17.002;2022-09-17T06:58:32;6.65;;;2.85;;
323;SDS011;149;51.094;17.002;2022-09-17T07:01:03;3.35;;;2.53;;
323;SDS011;149;51.094;17.002;2022-09-17T07:03:31;2.80;;;2.17;;
323;SDS011;149;51.094;17.002;2022-09-17T07:06:01;3.55;;;2.88;;
323;SDS011;149;51.094;17.002;2022-09-17T07:08:32;6.00;;;2.70;;
323;SDS011;149;51.094;17.002;2022-09-17T07:11:05;2.78;;;2.00;;
323;SDS011;149;51.094;17.002;2022-09-17T07:13:35;4.28;;;2.60;;
323;SDS011;149;51.094;17.002;2022-09-17T07:16:02;5.07;;;2.70;;
323;SDS011;149;51.094;17.002;2022-09-17T07:18:30;3.15;;;2.63;;
323;SDS011;149;51.094;17.002;2022-09-17T07:21:02;3.75;;;2.30;;
323;SDS011;149;51.094;17.002;2022-09-17T07:23:31;3.75;;;3.08;;
323;SDS011;149;51.094;17.002;2022-09-17T07:26:00;3.47;;;2.35;;
323;SDS011;149;51.094;17.002;2022-09-17T07:28:29;2.42;;;2.28;;
323;SDS011;149;51.094;17.002;2022-09-17T07:30:56;5.75;;;2.70;;
323;SDS011;149;51.094;17.002;2022-09-17T07:33:24;3.60;;;2.33;;
323;SDS011;149;51.094;17.002;2022-09-17T07:35:53;4.40;;;2.47;;
323;SDS011;149;51.094;17.002;2022-09-17T07:38:26;7.57;;;2.45;;
323;SDS011;149;51.094;17.002;2022-09-17T07:41:19;3.50;;;2.30;;
323;SDS011;149;51.094;17.002;2022-09-17T07:43:44;3.47;;;3.03;;
323;SDS011;149;51.094;17.002;2022-09-17T07:46:16;5.63;;;2.53;;
323;SDS011;149;51.094;17.002;2022-09-17T07:48:45;2.72;;;2.50;;
323;SDS011;149;51.094;17.002;2022-09-17T07:51:14;2.65;;;2.13;;
323;SDS011;149;51.094;17.002;2022-09-17T07:53:42;6.20;;;2.45;;
323;SDS011;149;51.094;17.002;2022-09-17T07:56:09;4.55;;;2.65;;
323;SDS011;149;51.094;17.002;2022-09-17T07:58:37;5.90;;;2.63;;
323;SDS011;149;51.094;17.002;2022-09-17T08:01:05;6.32;;;2.55;;
323;SDS011;149;51.094;17.002;2022-09-17T08:03:34;5.03;;;2.78;;
323;SDS011;149;51.094;17.002;2022-09-17T08:06:05;7.03;;;2.15;;
323;SDS011;149;51.094;17.002;2022-09-17T08:08:36;2.60;;;2.40;;
323;SDS011;149;51.094;17.002;2022-09-17T08:11:08;9.80;;;2.60;;
323;SDS011;149;51.094;17.002;2022-09-17T08:13:37;2.83;;;2.50;;
323;SDS011;149;51.094;17.002;2022-09-17T08:16:09;2.55;;;2.45;;
323;SDS011;149;51.094;17.002;2022-09-17T08:18:40;2.83;;;2.42;;
323;SDS011;149;51.094;17.002;2022-09-17T08:21:09;2.90;;;2.13;;
323;SDS011;149;51.094;17.002;2022-09-17T08:23:38;3.20;;;2.00;;
323;SDS011;149;51.094;17.002;2022-09-17T08:26:07;5.38;;;3.08;;
323;SDS011;149;51.094;17.002;2022-09-17T08:28:38;10.20;;;2.80;;
323;SDS011;149;51.094;17.002;2022-09-17T08:31:06;7.32;;;2.83;;
323;SDS011;149;51.094;17.002;2022-09-17T08:33:34;10.90;;;2.23;;
323;SDS011;149;51.094;17.002;2022-09-17T08:36:03;2.70;;;2.13;;
323;SDS011;149;51.094;17.002;2022-09-17T08:38:32;8.60;;;2.90;;
323;SDS011;149;51.094;17.002;2022-09-17T08:46:31;3.65;;;2.40;;
323;SDS011;149;51.094;17.002;2022-09-17T08:49:28;3.63;;;2.37;;
323;SDS011;149;51.094;17.002;2022-09-17T08:55:15;3.03;;;2.50;;
323;SDS011;149;51.094;17.002;2022-09-17T09:06:43;3.17;;;2.87;;
323;SDS011;149;51.094;17.002;2022-09-17T09:09:17;10.63;;;3.03;;
323;SDS011;149;51.094;17.002;2022-09-17T09:11:48;5.10;;;3.70;;
323;SDS011;149;51.094;17.002;2022-09-17T09:14:26;2.88;;;2.67;;
323;SDS011;149;51.094;17.002;2022-09-17T09:16:57;5.00;;;3.20;;
323;SDS011;149;51.094;17.002;2022-09-17T09:19:29;3.85;;;3.55;;
323;SDS011;149;51.094;17.002;2022-09-17T09:22:03;5.22;;;2.78;;
323;SDS011;149;51.094;17.002;2022-09-17T09:24:39;2.90;;;2.70;;
323;SDS011;149;51.094;17.002;2022-09-17T09:32:34;3.78;;;3.47;;
323;SDS011;149;51.094;17.002;2022-09-17T09:35:29;3.42;;;3.10;;
323;SDS011;149;51.094;17.002;2022-09-17T09:38:00;4.88;;;3.80;;
323;SDS011;149;51.094;17.002;2022-09-17T09:40:43;3.50;;;3.20;;
323;SDS011;149;51.094;17.002;2022-09-17T09:43:18;4.60;;;3.83;;
323;SDS011;149;51.094;17.002;2022-09-17T09:46:52;6.13;;;3.00;;
323;SDS011;149;51.094;17.002;2022-09-17T09:52:10;3.88;;;3.40;;
323;SDS011;149;51.094;17.002;2022-09-17T09:54:58;4.15;;;3.83;;
323;SDS011;149;51.094;17.002;2022-09-17T10:00:47;5.20;;;3.58;;
323;SDS011;149;51.094;17.002;2022-09-17T10:05:58;4.80;;;3.42;;
323;SDS011;149;51.094;17.002;2022-09-17T10:08:27;4.55;;;4.25;;
323;SDS011;149;51.094;17.002;2022-09-17T10:11:03;5.03;;;4.57;;
323;SDS011;149;51.094;17.002;2022-09-17T10:13:32;4.30;;;3.17;;
323;SDS011;149;51.094;17.002;2022-09-17T10:16:17;3.55;;;3.25;;
323;SDS011;149;51.094;17.002;2022-09-17T10:18:46;3.72;;;3.42;;
323;SDS011;149;51.094;17.002;2022-09-17T10:21:22;5.47;;;3.55;;
323;SDS011;149;51.094;17.002;2022-09-17T10:23:56;3.70;;;3.25;;
323;SDS011;149;51.094;17.002;2022-09-17T10:26:25;3.92;;;3.33;;
323;SDS011;149;51.094;17.002;2022-09-17T10:28:56;5.50;;;3.00;;
323;SDS011;149;51.094;17.002;2022-09-17T10:31:25;5.72;;;3.20;;
323;SDS011;149;51.094;17.002;2022-09-17T10:34:00;3.25;;;2.75;;
323;SDS011;149;51.094;17.002;2022-09-17T10:36:41;4.17;;;3.83;;
323;SDS011;149;51.094;17.002;2022-09-17T10:42:34;3.00;;;2.00;;
323;SDS011;149;51.094;17.002;2022-09-17T10:44:53;2.53;;;2.20;;
323;SDS011;149;51.094;17.002;2022-09-17T10:47:29;2.35;;;2.15;;
323;SDS011;149;51.094;17.002;2022-09-17T10:50:01;5.25;;;2.75;;
323;SDS011;149;51.094;17.002;2022-09-17T10:52:47;2.45;;;2.00;;
323;SDS011;149;51.094;17.002;2022-09-17T10:55:29;3.00;;;2.30;;
323;SDS011;149;51.094;17.002;2022-09-17T11:00:47;1.93;;;1.80;;
323;SDS011;149;51.094;17.002;2022-09-17T11:14:45;3.03;;;2.03;;
323;SDS011;149;51.094;17.002;2022-09-17T11:20:19;3.40;;;1.83;;
323;SDS011;149;51.094;17.002;2022-09-17T11:23:02;1.73;;;1.63;;
323;SDS011;149;51.094;17.002;2022-09-17T11:25:39;3.03;;;2.23;;
323;SDS011;149;51.094;17.002;2022-09-17T11:31:36;3.03;;;1.80;;
323;SDS011;149;51.094;17.002;2022-09-17T11:37:17;3.20;;;2.03;;
323;SDS011;149;51.094;17.002;2022-09-17T11:39:52;4.30;;;2.50;;
323;SDS011;149;51.094;17.002;2022-09-17T11:42:24;2.50;;;1.90;;
323;SDS011;149;51.094;17.002;2022-09-17T11:44:58;1.80;;;1.70;;
323;SDS011;149;51.094;17.002;2022-09-17T11:47:33;1.53;;;1.43;;
323;SDS011;149;51.094;17.002;2022-09-17T11:50:24;2.73;;;1.90;;
323;SDS011;149;51.094;17.002;2022-09-17T11:53:02;1.60;;;1.50;;
323;SDS011;149;51.094;17.002;2022-09-17T11:55:43;1.73;;;1.63;;
323;SDS011;149;51.094;17.002;2022-09-17T12:01:08;1.93;;;1.50;;
323;SDS011;149;51.094;17.002;2022-09-17T12:04:26;1.37;;;1.23;;
323;SDS011;149;51.094;17.002;2022-09-17T12:06:57;2.70;;;1.70;;
323;SDS011;149;51.094;17.002;2022-09-17T12:09:30;1.83;;;1.23;;
323;SDS011;149;51.094;17.002;2022-09-17T12:12:00;1.73;;;1.37;;
323;SDS011;149;51.094;17.002;2022-09-17T12:15:13;1.53;;;1.43;;
323;SDS011;149;51.094;17.002;2022-09-17T12:17:51;1.40;;;1.30;;
323;SDS011;149;51.094;17.002;2022-09-17T12:20:58;1.90;;;1.37;;
323;SDS011;149;51.094;17.002;2022-09-17T12:23:33;1.90;;;1.53;;
323;SDS011;149;51.094;17.002;2022-09-17T12:31:42;3.13;;;1.63;;
323;SDS011;149;51.094;17.002;2022-09-17T12:37:22;7.27;;;2.20;;
323;SDS011;149;51.094;17.002;2022-09-17T12:43:11;1.20;;;1.10;;
323;SDS011;149;51.094;17.002;2022-09-17T12:57:16;1.53;;;1.10;;
323;SDS011;149;51.094;17.002;2022-09-17T12:59:56;2.43;;;0.97;;
323;SDS011;149;51.094;17.002;2022-09-17T13:05:38;1.87;;;0.93;;
323;SDS011;149;51.094;17.002;2022-09-17T13:11:56;2.83;;;1.20;;
323;SDS011;149;51.094;17.002;2022-09-17T13:14:40;1.23;;;1.13;;
323;SDS011;149;51.094;17.002;2022-09-17T13:26:18;2.43;;;1.30;;
323;SDS011;149;51.094;17.002;2022-09-17T13:28:57;2.50;;;1.37;;
323;SDS011;149;51.094;17.002;2022-09-17T13:34:00;4.03;;;1.80;;
323;SDS011;149;51.094;17.002;2022-09-17T13:45:00;2.90;;;1.90;;
323;SDS011;149;51.094;17.002;2022-09-17T13:47:37;2.70;;;1.93;;
323;SDS011;149;51.094;17.002;2022-09-17T13:52:55;2.57;;;1.77;;
323;SDS011;149;51.094;17.002;2022-09-17T13:55:54;1.97;;;1.70;;
323;SDS011;149;51.094;17.002;2022-09-17T13:58:27;1.43;;;1.23;;
323;SDS011;149;51.094;17.002;2022-09-17T14:00:59;5.40;;;1.50;;
323;SDS011;149;51.094;17.002;2022-09-17T14:06:44;3.90;;;2.00;;
323;SDS011;149;51.094;17.002;2022-09-17T14:08:48;3.90;;;2.30;;
323;SDS011;149;51.094;17.002;2022-09-17T14:13:57;2.90;;;2.30;;
323;SDS011;149;51.094;17.002;2022-09-17T14:22:07;2.87;;;2.23;;
323;SDS011;149;51.094;17.002;2022-09-17T14:24:36;2.77;;;2.00;;
323;SDS011;149;51.094;17.002;2022-09-17T14:32:36;3.10;;;1.80;;
323;SDS011;149;51.094;17.002;2022-09-17T14:38:02;2.40;;;2.20;;
323;SDS011;149;51.094;17.002;2022-09-17T14:40:33;1.47;;;1.37;;
323;SDS011;149;51.094;17.002;2022-09-17T14:43:00;1.90;;;1.13;;
323;SDS011;149;51.094;17.002;2022-09-17T14:45:32;1.60;;;1.40;;
323;SDS011;149;51.094;17.002;2022-09-17T14:48:16;1.00;;;0.90;;
323;SDS011;149;51.094;17.002;2022-09-17T14:50:52;3.53;;;1.37;;
323;SDS011;149;51.094;17.002;2022-09-17T14:53:42;1.40;;;1.20;;
323;SDS011;149;51.094;17.002;2022-09-17T14:56:17;2.93;;;1.60;;
323;SDS011;149;51.094;17.002;2022-09-17T14:58:54;5.53;;;1.53;;
323;SDS011;149;51.094;17.002;2022-09-17T15:01:29;2.50;;;1.23;;
323;SDS011;149;51.094;17.002;2022-09-17T15:06:41;1.43;;;0.90;;
323;SDS011;149;51.094;17.002;2022-09-17T15:09:14;2.43;;;1.97;;
323;SDS011;149;51.094;17.002;2022-09-17T15:11:43;2.43;;;1.50;;
323;SDS011;149;51.094;17.002;2022-09-17T15:14:22;2.63;;;1.30;;
323;SDS011;149;51.094;17.002;2022-09-17T15:16:56;1.70;;;1.30;;
323;SDS011;149;51.094;17.002;2022-09-17T15:22:03;2.97;;;1.40;;
323;SDS011;149;51.094;17.002;2022-09-17T15:30:01;2.10;;;1.60;;
323;SDS011;149;51.094;17.002;2022-09-17T15:32:40;1.50;;;1.40;;
323;SDS011;149;51.094;17.002;2022-09-17T15:37:47;2.90;;;1.67;;
323;SDS011;149;51.094;17.002;2022-09-17T15:40:38;1.90;;;1.43;;
323;SDS011;149;51.094;17.002;2022-09-17T15:45:46;5.05;;;1.90;;
323;SDS011;149;51.094;17.002;2022-09-17T15:48:21;4.82;;;2.10;;
323;SDS011;149;51.094;17.002;2022-09-17T15:50:56;2.78;;;2.20;;
323;SDS011;149;51.094;17.002;2022-09-17T15:53:26;4.30;;;2.15;;
323;SDS011;149;51.094;17.002;2022-09-17T16:08:43;2.65;;;1.20;;
323;SDS011;149;51.094;17.002;2022-09-17T16:11:21;1.33;;;1.10;;
323;SDS011;149;51.094;17.002;2022-09-17T16:13:50;3.42;;;1.85;;
323;SDS011;149;51.094;17.002;2022-09-17T16:16:19;4.80;;;2.03;;
323;SDS011;149;51.094;17.002;2022-09-17T16:18:52;1.15;;;1.05;;
323;SDS011;149;51.094;17.002;2022-09-17T16:21:19;3.53;;;2.72;;
323;SDS011;149;51.094;17.002;2022-09-17T16:23:46;1.90;;;1.15;;
323;SDS011;149;51.094;17.002;2022-09-17T16:26:17;3.65;;;1.58;;
323;SDS011;149;51.094;17.002;2022-09-17T16:28:46;1.92;;;1.77;;
323;SDS011;149;51.094;17.002;2022-09-17T16:31:18;2.83;;;1.77;;
323;SDS011;149;51.094;17.002;2022-09-17T16:33:46;1.88;;;1.25;;
323;SDS011;149;51.094;17.002;2022-09-17T16:36:15;4.40;;;2.05;;
323;SDS011;149;51.094;17.002;2022-09-17T16:38:45;1.42;;;1.33;;
323;SDS011;149;51.094;17.002;2022-09-17T16:41:12;2.65;;;1.77;;
323;SDS011;149;51.094;17.002;2022-09-17T16:43:39;1.75;;;1.65;;
323;SDS011;149;51.094;17.002;2022-09-17T16:46:09;2.63;;;1.80;;
323;SDS011;149;51.094;17.002;2022-09-17T16:48:36;5.18;;;2.50;;
323;SDS011;149;51.094;17.002;2022-09-17T16:51:07;3.33;;;2.72;;
323;SDS011;149;51.094;17.002;2022-09-17T16:53:37;1.83;;;1.55;;
323;SDS011;149;51.094;17.002;2022-09-17T16:56:10;7.53;;;1.77;;
323;SDS011;149;51.094;17.002;2022-09-17T16:58:38;2.75;;;1.20;;
323;SDS011;149;51.094;17.002;2022-09-17T17:01:07;5.45;;;2.60;;
323;SDS011;149;51.094;17.002;2022-09-17T17:03:38;1.92;;;1.63;;
323;SDS011;149;51.094;17.002;2022-09-17T17:06:05;8.52;;;2.30;;
323;SDS011;149;51.094;17.002;2022-09-17T17:08:41;3.20;;;2.28;;
323;SDS011;149;51.094;17.002;2022-09-17T17:11:09;5.03;;;2.95;;
323;SDS011;149;51.094;17.002;2022-09-17T17:13:36;4.78;;;2.30;;
323;SDS011;149;51.094;17.002;2022-09-17T17:16:06;2.13;;;1.92;;
323;SDS011;149;51.094;17.002;2022-09-17T17:18:37;4.28;;;2.35;;
323;SDS011;149;51.094;17.002;2022-09-17T17:21:08;6.88;;;2.45;;
323;SDS011;149;51.094;17.002;2022-09-17T17:23:36;4.97;;;1.88;;
323;SDS011;149;51.094;17.002;2022-09-17T17:26:03;3.55;;;2.03;;
323;SDS011;149;51.094;17.002;2022-09-17T17:28:31;3.92;;;2.30;;
323;SDS011;149;51.094;17.002;2022-09-17T17:30:59;2.53;;;1.88;;
323;SDS011;149;51.094;17.002;2022-09-17T17:33:26;6.57;;;2.55;;
323;SDS011;149;51.094;17.002;2022-09-17T17:35:54;3.22;;;1.65;;
323;SDS011;149;51.094;17.002;2022-09-17T17:38:33;4.35;;;2.28;;
323;SDS011;149;51.094;17.002;2022-09-17T17:41:03;3.30;;;2.03;;
323;SDS011;149;51.094;17.002;2022-09-17T17:43:39;6.57;;;1.77;;
323;SDS011;149;51.094;17.002;2022-09-17T17:46:07;3.85;;;2.15;;
323;SDS011;149;51.094;17.002;2022-09-17T17:48:35;5.18;;;2.85;;
323;SDS011;149;51.094;17.002;2022-09-17T17:51:04;6.72;;;2.42;;
323;SDS011;149;51.094;17.002;2022-09-17T17:53:34;3.13;;;2.13;;
323;SDS011;149;51.094;17.002;2022-09-17T17:56:03;3.50;;;2.75;;
323;SDS011;149;51.094;17.002;2022-09-17T17:58:31;6.75;;;3.05;;
323;SDS011;149;51.094;17.002;2022-09-17T18:00:59;5.75;;;2.95;;
323;SDS011;149;51.094;17.002;2022-09-17T18:03:39;5.88;;;3.28;;
323;SDS011;149;51.094;17.002;2022-09-17T18:06:07;7.20;;;2.83;;
323;SDS011;149;51.094;17.002;2022-09-17T18:08:34;7.75;;;2.80;;
323;SDS011;149;51.094;17.002;2022-09-17T18:11:02;7.20;;;3.03;;
323;SDS011;149;51.094;17.002;2022-09-17T18:13:31;5.43;;;2.40;;
323;SDS011;149;51.094;17.002;2022-09-17T18:15:58;2.75;;;2.08;;
323;SDS011;149;51.094;17.002;2022-09-17T18:18:33;3.08;;;2.60;;
323;SDS011;149;51.094;17.002;2022-09-17T18:21:11;4.47;;;2.75;;
323;SDS011;149;51.094;17.002;2022-09-17T18:23:43;4.82;;;2.83;;
323;SDS011;149;51.094;17.002;2022-09-17T18:26:12;4.82;;;3.08;;
323;SDS011;149;51.094;17.002;2022-09-17T18:28:43;10.15;;;3.55;;
323;SDS011;149;51.094;17.002;2022-09-17T18:31:16;3.20;;;2.85;;
323;SDS011;149;51.094;17.002;2022-09-17T18:33:55;3.28;;;2.90;;
323;SDS011;149;51.094;17.002;2022-09-17T18:36:33;5.45;;;2.58;;
323;SDS011;149;51.094;17.002;2022-09-17T18:39:02;6.53;;;3.17;;
323;SDS011;149;51.094;17.002;2022-09-17T18:41:51;4.07;;;2.30;;
323;SDS011;149;51.094;17.002;2022-09-17T18:44:18;9.80;;;3.85;;
323;SDS011;149;51.094;17.002;2022-09-17T18:46:50;3.33;;;2.85;;
323;SDS011;149;51.094;17.002;2022-09-17T18:49:17;3.38;;;2.00;;
323;SDS011;149;51.094;17.002;2022-09-17T18:51:44;2.78;;;2.58;;
323;SDS011;149;51.094;17.002;2022-09-17T18:54:11;3.20;;;2.20;;
323;SDS011;149;51.094;17.002;2022-09-17T18:56:38;7.20;;;2.55;;
323;SDS011;149;51.094;17.002;2022-09-17T18:59:07;2.72;;;2.30;;
323;SDS011;149;51.094;17.002;2022-09-17T19:01:36;4.72;;;2.20;;
323;SDS011;149;51.094;17.002;2022-09-17T19:04:04;4.68;;;2.40;;
323;SDS011;149;51.094;17.002;2022-09-17T19:06:33;4.00;;;2.50;;
323;SDS011;149;51.094;17.002;2022-09-17T19:09:00;3.92;;;2.53;;
323;SDS011;149;51.094;17.002;2022-09-17T19:11:29;3.97;;;2.83;;
323;SDS011;149;51.094;17.002;2022-09-17T19:13:56;3.45;;;2.63;;
323;SDS011;149;51.094;17.002;2022-09-17T19:16:31;4.40;;;2.15;;